sensor_id;sensor_type;location;lat;lon;timestamp;P1;durP1;ratioP1;P2;durP2;ratioP2
7383;SDS011;3733;47.994;8.820;2023-11-21T00:02:19;4.17;;;2.50;;
7383;SDS011;3733;47.994;8.820;2023-11-21T00:04:45;7.37;;;2.07;;
7383;SDS011;3733;47.994;8.820;2023-11-21T00:07:12;5.53;;;2.10;;
7383;SDS011;3733;47.994;8.820;2023-11-21T00:09:38;5.60;;;2.60;;
7383;SDS011;3733;47.994;8.820;2023-11-21T00:12:03;3.93;;;1.60;;
7383;SDS011;3733;47.994;8.820;2023-11-21T00:14:29;5.23;;;2.03;;
7383;SDS011;3733;47.994;8.820;2023-11-21T00:16:55;6.90;;;1.77;;
7383;SDS011;3733;47.994;8.820;2023-11-21T00:19:20;4.37;;;1.80;;
7383;SDS011;3733;47.994;8.820;2023-11-21T00:21:46;8.40;;;2.03;;
7383;SDS011;3733;47.994;8.820;2023-11-21T00:24:12;3.47;;;1.70;;
7383;SDS011;3733;47.994;8.820;2023-11-21T00:26:39;11.17;;;1.87;;
7383;SDS011;3733;47.994;8.820;2023-11-21T00:29:05;8.93;;;2.53;;
7383;SDS011;3733;47.994;8.820;2023-11-21T00:31:33;7.00;;;2.13;;
7383;SDS011;3733;47.994;8.820;2023-11-21T00:34:01;4.53;;;1.80;;
7383;SDS011;3733;47.994;8.820;2023-11-21T00:36:28;5.60;;;2.00;;
7383;SDS011;3733;47.994;8.820;2023-11-21T00:38:54;6.10;;;2.03;;
7383;SDS011;3733;47.994;8.820;2023-11-21T00:41:20;6.63;;;1.77;;
7383;SDS011;3733;47.994;8.820;2023-11-21T00:43:46;6.80;;;1.80;;
7383;SDS011;3733;47.994;8.820;2023-11-21T00:46:11;5.93;;;2.20;;
7383;SDS011;3733;47.994;8.820;2023-11-21T00:48:37;6.40;;;1.90;;
7383;SDS011;3733;47.994;8.820;2023-11-21T00:51:03;4.47;;;1.70;;
7383;SDS011;3733;47.994;8.820;2023-11-21T00:53:29;4.00;;;1.77;;
7383;SDS011;3733;47.994;8.820;2023-11-21T00:55:54;3.73;;;1.80;;
7383;SDS011;3733;47.994;8.820;2023-11-21T00:58:22;8.53;;;1.80;;
7383;SDS011;3733;47.994;8.820;2023-11-21T01:00:51;2.90;;;1.60;;
7383;SDS011;3733;47.994;8.820;2023-11-21T01:03:17;10.50;;;2.10;;
7383;SDS011;3733;47.994;8.820;2023-11-21T01:05:42;5.07;;;1.67;;
7383;SDS011;3733;47.994;8.820;2023-11-21T01:08:08;4.13;;;1.80;;
7383;SDS011;3733;47.994;8.820;2023-11-21T01:10:34;6.33;;;1.60;;
7383;SDS011;3733;47.994;8.820;2023-11-21T01:13:00;7.27;;;2.07;;
7383;SDS011;3733;47.994;8.820;2023-11-21T01:15:25;6.40;;;1.50;;
7383;SDS011;3733;47.994;8.820;2023-11-21T01:17:51;5.87;;;2.17;;
7383;SDS011;3733;47.994;8.820;2023-11-21T01:20:17;3.70;;;1.50;;
7383;SDS011;3733;47.994;8.820;2023-11-21T01:22:43;8.17;;;1.70;;
7383;SDS011;3733;47.994;8.820;2023-11-21T01:25:09;10.17;;;2.10;;
7383;SDS011;3733;47.994;8.820;2023-11-21T01:27:35;5.70;;;1.83;;
7383;SDS011;3733;47.994;8.820;2023-11-21T01:30:02;1.77;;;1.67;;
7383;SDS011;3733;47.994;8.820;2023-11-21T01:32:29;4.00;;;2.00;;
7383;SDS011;3733;47.994;8.820;2023-11-21T01:34:55;9.17;;;2.10;;
7383;SDS011;3733;47.994;8.820;2023-11-21T01:37:21;3.90;;;1.70;;
7383;SDS011;3733;47.994;8.820;2023-11-21T01:39:47;3.93;;;2.20;;
7383;SDS011;3733;47.994;8.820;2023-11-21T01:42:13;7.23;;;1.70;;
7383;SDS011;3733;47.994;8.820;2023-11-21T01:44:38;9.80;;;2.60;;
7383;SDS011;3733;47.994;8.820;2023-11-21T01:47:07;7.60;;;2.90;;
7383;SDS011;3733;47.994;8.820;2023-11-21T01:49:34;4.97;;;2.67;;
7383;SDS011;3733;47.994;8.820;2023-11-21T01:52:00;5.43;;;2.23;;
7383;SDS011;3733;47.994;8.820;2023-11-21T01:54:27;11.60;;;3.10;;
7383;SDS011;3733;47.994;8.820;2023-11-21T01:56:56;11.43;;;4.17;;
7383;SDS011;3733;47.994;8.820;2023-11-21T01:59:27;8.00;;;3.13;;
7383;SDS011;3733;47.994;8.820;2023-11-21T02:02:04;7.20;;;3.47;;
7383;SDS011;3733;47.994;8.820;2023-11-21T02:04:31;8.63;;;3.67;;
7383;SDS011;3733;47.994;8.820;2023-11-21T02:07:01;5.60;;;3.33;;
7383;SDS011;3733;47.994;8.820;2023-11-21T02:09:30;6.43;;;3.00;;
7383;SDS011;3733;47.994;8.820;2023-11-21T02:11:59;7.60;;;2.77;;
7383;SDS011;3733;47.994;8.820;2023-11-21T02:14:28;3.40;;;2.07;;
7383;SDS011;3733;47.994;8.820;2023-11-21T02:16:55;2.90;;;1.83;;
7383;SDS011;3733;47.994;8.820;2023-11-21T02:19:22;3.30;;;1.80;;
7383;SDS011;3733;47.994;8.820;2023-11-21T02:21:50;4.57;;;1.80;;
7383;SDS011;3733;47.994;8.820;2023-11-21T02:24:23;1.83;;;1.50;;
7383;SDS011;3733;47.994;8.820;2023-11-21T02:26:49;4.30;;;1.30;;
7383;SDS011;3733;47.994;8.820;2023-11-21T02:29:16;4.40;;;1.70;;
7383;SDS011;3733;47.994;8.820;2023-11-21T02:31:43;4.47;;;1.83;;
7383;SDS011;3733;47.994;8.820;2023-11-21T02:34:16;4.93;;;1.73;;
7383;SDS011;3733;47.994;8.820;2023-11-21T02:36:45;2.57;;;1.83;;
7383;SDS011;3733;47.994;8.820;2023-11-21T02:39:12;2.60;;;1.20;;
7383;SDS011;3733;47.994;8.820;2023-11-21T02:41:38;1.53;;;1.43;;
7383;SDS011;3733;47.994;8.820;2023-11-21T02:44:04;3.97;;;1.60;;
7383;SDS011;3733;47.994;8.820;2023-11-21T02:46:31;5.07;;;1.30;;
7383;SDS011;3733;47.994;8.820;2023-11-21T02:48:58;2.80;;;1.50;;
7383;SDS011;3733;47.994;8.820;2023-11-21T02:51:25;2.20;;;1.40;;
7383;SDS011;3733;47.994;8.820;2023-11-21T02:53:50;5.20;;;1.73;;
7383;SDS011;3733;47.994;8.820;2023-11-21T02:56:17;2.43;;;1.13;;
7383;SDS011;3733;47.994;8.820;2023-11-21T02:58:43;3.03;;;1.50;;
7383;SDS011;3733;47.994;8.820;2023-11-21T03:01:09;2.20;;;1.50;;
7383;SDS011;3733;47.994;8.820;2023-11-21T03:03:36;3.23;;;1.50;;
7383;SDS011;3733;47.994;8.820;2023-11-21T03:06:05;2.17;;;1.30;;
7383;SDS011;3733;47.994;8.820;2023-11-21T03:08:31;1.90;;;1.30;;
7383;SDS011;3733;47.994;8.820;2023-11-21T03:10:57;1.83;;;1.10;;
7383;SDS011;3733;47.994;8.820;2023-11-21T03:13:23;2.10;;;1.10;;
7383;SDS011;3733;47.994;8.820;2023-11-21T03:15:48;1.60;;;1.30;;
7383;SDS011;3733;47.994;8.820;2023-11-21T03:18:14;3.77;;;1.60;;
7383;SDS011;3733;47.994;8.820;2023-11-21T03:20:40;3.07;;;1.50;;
7383;SDS011;3733;47.994;8.820;2023-11-21T03:23:06;1.23;;;1.13;;
7383;SDS011;3733;47.994;8.820;2023-11-21T03:25:32;3.60;;;1.33;;
7383;SDS011;3733;47.994;8.820;2023-11-21T03:27:57;2.40;;;1.30;;
7383;SDS011;3733;47.994;8.820;2023-11-21T03:30:23;1.63;;;1.10;;
7383;SDS011;3733;47.994;8.820;2023-11-21T03:32:48;3.80;;;1.33;;
7383;SDS011;3733;47.994;8.820;2023-11-21T03:35:14;3.47;;;1.60;;
7383;SDS011;3733;47.994;8.820;2023-11-21T03:37:40;2.40;;;1.47;;
7383;SDS011;3733;47.994;8.820;2023-11-21T03:40:06;2.53;;;1.30;;
7383;SDS011;3733;47.994;8.820;2023-11-21T03:42:34;1.63;;;1.37;;
7383;SDS011;3733;47.994;8.820;2023-11-21T03:44:59;1.77;;;1.30;;
7383;SDS011;3733;47.994;8.820;2023-11-21T03:47:28;3.57;;;1.30;;
7383;SDS011;3733;47.994;8.820;2023-11-21T03:49:53;1.17;;;1.07;;
7383;SDS011;3733;47.994;8.820;2023-11-21T03:52:20;4.60;;;1.80;;
7383;SDS011;3733;47.994;8.820;2023-11-21T03:54:45;1.40;;;1.30;;
7383;SDS011;3733;47.994;8.820;2023-11-21T03:57:11;2.30;;;1.20;;
7383;SDS011;3733;47.994;8.820;2023-11-21T03:59:39;1.50;;;1.30;;
7383;SDS011;3733;47.994;8.820;2023-11-21T04:02:06;5.03;;;1.00;;
7383;SDS011;3733;47.994;8.820;2023-11-21T04:04:32;3.57;;;1.60;;
7383;SDS011;3733;47.994;8.820;2023-11-21T04:06:58;3.73;;;3.10;;
7383;SDS011;3733;47.994;8.820;2023-11-21T04:09:24;5.63;;;4.10;;
7383;SDS011;3733;47.994;8.820;2023-11-21T04:11:50;5.73;;;2.30;;
7383;SDS011;3733;47.994;8.820;2023-11-21T04:14:17;3.40;;;2.00;;
7383;SDS011;3733;47.994;8.820;2023-11-21T04:16:42;2.80;;;1.83;;
7383;SDS011;3733;47.994;8.820;2023-11-21T04:19:08;2.67;;;1.50;;
7383;SDS011;3733;47.994;8.820;2023-11-21T04:21:39;1.80;;;1.33;;
7383;SDS011;3733;47.994;8.820;2023-11-21T04:24:06;3.03;;;1.30;;
7383;SDS011;3733;47.994;8.820;2023-11-21T04:26:32;1.30;;;1.20;;
7383;SDS011;3733;47.994;8.820;2023-11-21T04:28:58;6.93;;;1.47;;
7383;SDS011;3733;47.994;8.820;2023-11-21T04:31:24;1.53;;;1.00;;
7383;SDS011;3733;47.994;8.820;2023-11-21T04:33:49;1.00;;;0.90;;
7383;SDS011;3733;47.994;8.820;2023-11-21T04:36:15;2.70;;;1.90;;
7383;SDS011;3733;47.994;8.820;2023-11-21T04:38:41;2.60;;;1.23;;
7383;SDS011;3733;47.994;8.820;2023-11-21T04:41:07;1.37;;;1.20;;
7383;SDS011;3733;47.994;8.820;2023-11-21T04:43:33;3.73;;;1.30;;
7383;SDS011;3733;47.994;8.820;2023-11-21T04:45:58;1.40;;;1.10;;
7383;SDS011;3733;47.994;8.820;2023-11-21T04:48:25;3.00;;;1.40;;
7383;SDS011;3733;47.994;8.820;2023-11-21T04:50:50;2.57;;;1.10;;
7383;SDS011;3733;47.994;8.820;2023-11-21T04:53:16;1.73;;;1.37;;
7383;SDS011;3733;47.994;8.820;2023-11-21T04:55:42;1.60;;;1.50;;
7383;SDS011;3733;47.994;8.820;2023-11-21T04:58:08;2.20;;;1.70;;
7383;SDS011;3733;47.994;8.820;2023-11-21T05:00:34;5.97;;;2.73;;
7383;SDS011;3733;47.994;8.820;2023-11-21T05:03:01;3.93;;;1.70;;
7383;SDS011;3733;47.994;8.820;2023-11-21T05:05:27;2.00;;;1.47;;
7383;SDS011;3733;47.994;8.820;2023-11-21T05:07:54;3.30;;;1.70;;
7383;SDS011;3733;47.994;8.820;2023-11-21T05:10:20;2.97;;;2.00;;
7383;SDS011;3733;47.994;8.820;2023-11-21T05:12:47;2.93;;;1.60;;
7383;SDS011;3733;47.994;8.820;2023-11-21T05:15:15;8.40;;;2.60;;
7383;SDS011;3733;47.994;8.820;2023-11-21T05:17:42;6.63;;;3.17;;
7383;SDS011;3733;47.994;8.820;2023-11-21T05:20:12;1.93;;;1.63;;
7383;SDS011;3733;47.994;8.820;2023-11-21T05:22:42;4.30;;;1.70;;
7383;SDS011;3733;47.994;8.820;2023-11-21T05:25:08;2.97;;;1.90;;
7383;SDS011;3733;47.994;8.820;2023-11-21T05:27:34;1.70;;;1.60;;
7383;SDS011;3733;47.994;8.820;2023-11-21T05:30:01;3.07;;;1.47;;
7383;SDS011;3733;47.994;8.820;2023-11-21T05:32:30;1.50;;;1.20;;
7383;SDS011;3733;47.994;8.820;2023-11-21T05:34:56;2.00;;;1.40;;
7383;SDS011;3733;47.994;8.820;2023-11-21T05:37:21;3.50;;;1.73;;
7383;SDS011;3733;47.994;8.820;2023-11-21T05:39:48;4.17;;;2.30;;
7383;SDS011;3733;47.994;8.820;2023-11-21T05:42:14;3.10;;;1.63;;
7383;SDS011;3733;47.994;8.820;2023-11-21T05:44:41;2.23;;;1.47;;
7383;SDS011;3733;47.994;8.820;2023-11-21T05:47:08;2.90;;;1.40;;
7383;SDS011;3733;47.994;8.820;2023-11-21T05:49:34;1.83;;;1.40;;
7383;SDS011;3733;47.994;8.820;2023-11-21T05:52:00;3.60;;;1.70;;
7383;SDS011;3733;47.994;8.820;2023-11-21T05:54:26;2.53;;;2.03;;
7383;SDS011;3733;47.994;8.820;2023-11-21T05:56:51;3.00;;;1.87;;
7383;SDS011;3733;47.994;8.820;2023-11-21T05:59:17;3.27;;;2.03;;
7383;SDS011;3733;47.994;8.820;2023-11-21T06:01:43;2.43;;;1.20;;
7383;SDS011;3733;47.994;8.820;2023-11-21T06:04:10;2.43;;;1.40;;
7383;SDS011;3733;47.994;8.820;2023-11-21T06:06:36;2.47;;;1.70;;
7383;SDS011;3733;47.994;8.820;2023-11-21T06:09:02;3.07;;;1.70;;
7383;SDS011;3733;47.994;8.820;2023-11-21T06:11:28;2.33;;;1.70;;
7383;SDS011;3733;47.994;8.820;2023-11-21T06:13:54;1.80;;;1.60;;
7383;SDS011;3733;47.994;8.820;2023-11-21T06:16:20;2.13;;;1.90;;
7383;SDS011;3733;47.994;8.820;2023-11-21T06:18:46;2.53;;;2.30;;
7383;SDS011;3733;47.994;8.820;2023-11-21T06:21:11;3.13;;;2.23;;
7383;SDS011;3733;47.994;8.820;2023-11-21T06:23:38;2.70;;;2.30;;
7383;SDS011;3733;47.994;8.820;2023-11-21T06:26:04;4.97;;;2.70;;
7383;SDS011;3733;47.994;8.820;2023-11-21T06:28:31;3.60;;;2.90;;
7383;SDS011;3733;47.994;8.820;2023-11-21T06:30:57;3.50;;;2.80;;
7383;SDS011;3733;47.994;8.820;2023-11-21T06:33:23;3.57;;;3.03;;
7383;SDS011;3733;47.994;8.820;2023-11-21T06:35:52;2.83;;;2.30;;
7383;SDS011;3733;47.994;8.820;2023-11-21T06:38:18;4.80;;;2.60;;
7383;SDS011;3733;47.994;8.820;2023-11-21T06:40:44;4.90;;;2.60;;
7383;SDS011;3733;47.994;8.820;2023-11-21T06:43:10;7.30;;;2.70;;
7383;SDS011;3733;47.994;8.820;2023-11-21T06:45:36;3.90;;;2.63;;
7383;SDS011;3733;47.994;8.820;2023-11-21T06:48:01;3.33;;;2.50;;
7383;SDS011;3733;47.994;8.820;2023-11-21T06:50:27;3.57;;;2.07;;
7383;SDS011;3733;47.994;8.820;2023-11-21T06:52:53;3.70;;;2.30;;
7383;SDS011;3733;47.994;8.820;2023-11-21T06:55:18;3.60;;;2.77;;
7383;SDS011;3733;47.994;8.820;2023-11-21T06:57:44;3.10;;;2.30;;
7383;SDS011;3733;47.994;8.820;2023-11-21T07:00:10;2.80;;;2.50;;
7383;SDS011;3733;47.994;8.820;2023-11-21T07:02:36;3.63;;;2.53;;
7383;SDS011;3733;47.994;8.820;2023-11-21T07:05:02;7.33;;;2.53;;
7383;SDS011;3733;47.994;8.820;2023-11-21T07:07:28;7.93;;;2.67;;
7383;SDS011;3733;47.994;8.820;2023-11-21T07:09:54;7.20;;;2.60;;
7383;SDS011;3733;47.994;8.820;2023-11-21T07:12:19;5.00;;;2.40;;
7383;SDS011;3733;47.994;8.820;2023-11-21T07:14:48;3.60;;;2.30;;
7383;SDS011;3733;47.994;8.820;2023-11-21T07:17:14;6.23;;;2.70;;
7383;SDS011;3733;47.994;8.820;2023-11-21T07:19:41;5.00;;;2.87;;
7383;SDS011;3733;47.994;8.820;2023-11-21T07:22:06;8.13;;;2.70;;
7383;SDS011;3733;47.994;8.820;2023-11-21T07:24:33;5.80;;;2.23;;
7383;SDS011;3733;47.994;8.820;2023-11-21T07:26:59;3.73;;;2.33;;
7383;SDS011;3733;47.994;8.820;2023-11-21T07:29:25;2.60;;;2.07;;
7383;SDS011;3733;47.994;8.820;2023-11-21T07:31:52;3.00;;;1.80;;
7383;SDS011;3733;47.994;8.820;2023-11-21T07:34:18;3.77;;;2.20;;
7383;SDS011;3733;47.994;8.820;2023-11-21T07:36:45;4.37;;;2.67;;
7383;SDS011;3733;47.994;8.820;2023-11-21T07:39:11;3.57;;;2.30;;
7383;SDS011;3733;47.994;8.820;2023-11-21T07:41:37;4.97;;;2.80;;
7383;SDS011;3733;47.994;8.820;2023-11-21T07:44:09;4.90;;;2.90;;
7383;SDS011;3733;47.994;8.820;2023-11-21T07:46:35;3.90;;;2.67;;
7383;SDS011;3733;47.994;8.820;2023-11-21T07:49:01;5.03;;;3.20;;
7383;SDS011;3733;47.994;8.820;2023-11-21T07:51:26;4.97;;;2.70;;
7383;SDS011;3733;47.994;8.820;2023-11-21T07:53:52;3.70;;;2.70;;
7383;SDS011;3733;47.994;8.820;2023-11-21T07:56:17;2.23;;;2.03;;
7383;SDS011;3733;47.994;8.820;2023-11-21T07:58:43;8.20;;;1.70;;
7383;SDS011;3733;47.994;8.820;2023-11-21T08:01:09;2.30;;;2.07;;
7383;SDS011;3733;47.994;8.820;2023-11-21T08:03:35;3.57;;;1.40;;
7383;SDS011;3733;47.994;8.820;2023-11-21T08:06:01;2.50;;;1.93;;
7383;SDS011;3733;47.994;8.820;2023-11-21T08:08:28;4.17;;;1.80;;
7383;SDS011;3733;47.994;8.820;2023-11-21T08:10:54;5.53;;;1.70;;
7383;SDS011;3733;47.994;8.820;2023-11-21T08:13:26;3.73;;;2.00;;
7383;SDS011;3733;47.994;8.820;2023-11-21T08:15:53;1.93;;;1.83;;
7383;SDS011;3733;47.994;8.820;2023-11-21T08:18:20;4.63;;;1.80;;
7383;SDS011;3733;47.994;8.820;2023-11-21T08:20:45;3.03;;;2.23;;
7383;SDS011;3733;47.994;8.820;2023-11-21T08:23:13;4.43;;;2.00;;
7383;SDS011;3733;47.994;8.820;2023-11-21T08:25:44;4.10;;;2.60;;
7383;SDS011;3733;47.994;8.820;2023-11-21T08:28:10;2.87;;;2.63;;
7383;SDS011;3733;47.994;8.820;2023-11-21T08:30:36;3.70;;;2.70;;
7383;SDS011;3733;47.994;8.820;2023-11-21T08:33:02;2.53;;;2.03;;
7383;SDS011;3733;47.994;8.820;2023-11-21T08:35:28;7.60;;;2.40;;
7383;SDS011;3733;47.994;8.820;2023-11-21T08:37:54;3.63;;;2.10;;
7383;SDS011;3733;47.994;8.820;2023-11-21T08:40:20;2.30;;;1.97;;
7383;SDS011;3733;47.994;8.820;2023-11-21T08:42:47;1.67;;;1.47;;
7383;SDS011;3733;47.994;8.820;2023-11-21T08:45:16;2.00;;;1.90;;
7383;SDS011;3733;47.994;8.820;2023-11-21T08:47:42;1.90;;;1.73;;
7383;SDS011;3733;47.994;8.820;2023-11-21T08:50:09;3.27;;;1.83;;
7383;SDS011;3733;47.994;8.820;2023-11-21T08:52:37;1.50;;;1.40;;
7383;SDS011;3733;47.994;8.820;2023-11-21T08:55:03;2.90;;;1.50;;
7383;SDS011;3733;47.994;8.820;2023-11-21T08:57:35;2.07;;;1.97;;
7383;SDS011;3733;47.994;8.820;2023-11-21T09:00:04;2.50;;;1.60;;
7383;SDS011;3733;47.994;8.820;2023-11-21T09:02:35;2.10;;;1.50;;
7383;SDS011;3733;47.994;8.820;2023-11-21T09:05:02;1.70;;;1.60;;
7383;SDS011;3733;47.994;8.820;2023-11-21T09:07:31;2.30;;;2.10;;
7383;SDS011;3733;47.994;8.820;2023-11-21T09:09:56;2.60;;;2.20;;
7383;SDS011;3733;47.994;8.820;2023-11-21T09:12:22;6.70;;;2.30;;
7383;SDS011;3733;47.994;8.820;2023-11-21T09:14:49;2.70;;;1.63;;
7383;SDS011;3733;47.994;8.820;2023-11-21T09:17:16;3.07;;;1.63;;
7383;SDS011;3733;47.994;8.820;2023-11-21T09:19:41;5.20;;;1.97;;
7383;SDS011;3733;47.994;8.820;2023-11-21T09:22:10;2.33;;;1.83;;
7383;SDS011;3733;47.994;8.820;2023-11-21T09:24:36;3.40;;;1.90;;
7383;SDS011;3733;47.994;8.820;2023-11-21T09:27:02;2.10;;;1.90;;
7383;SDS011;3733;47.994;8.820;2023-11-21T09:29:28;1.73;;;1.63;;
7383;SDS011;3733;47.994;8.820;2023-11-21T09:31:55;3.80;;;1.80;;
7383;SDS011;3733;47.994;8.820;2023-11-21T09:34:24;4.77;;;1.77;;
7383;SDS011;3733;47.994;8.820;2023-11-21T09:36:53;2.40;;;1.80;;
7383;SDS011;3733;47.994;8.820;2023-11-21T09:39:19;7.10;;;2.23;;
7383;SDS011;3733;47.994;8.820;2023-11-21T09:44:20;1.70;;;1.60;;
7383;SDS011;3733;47.994;8.820;2023-11-21T09:46:58;2.00;;;1.80;;
7383;SDS011;3733;47.994;8.820;2023-11-21T09:49:24;2.30;;;1.50;;
7383;SDS011;3733;47.994;8.820;2023-11-21T09:51:53;1.87;;;1.47;;
7383;SDS011;3733;47.994;8.820;2023-11-21T09:54:22;3.70;;;2.30;;
7383;SDS011;3733;47.994;8.820;2023-11-21T09:56:48;2.03;;;1.70;;
7383;SDS011;3733;47.994;8.820;2023-11-21T09:59:15;4.70;;;1.90;;
7383;SDS011;3733;47.994;8.820;2023-11-21T10:01:41;1.73;;;1.63;;
7383;SDS011;3733;47.994;8.820;2023-11-21T10:04:08;1.90;;;1.50;;
7383;SDS011;3733;47.994;8.820;2023-11-21T10:06:40;2.50;;;1.67;;
7383;SDS011;3733;47.994;8.820;2023-11-21T10:09:07;3.37;;;2.00;;
7383;SDS011;3733;47.994;8.820;2023-11-21T10:11:37;2.53;;;1.80;;
7383;SDS011;3733;47.994;8.820;2023-11-21T10:14:11;1.40;;;1.30;;
7383;SDS011;3733;47.994;8.820;2023-11-21T10:16:38;2.03;;;1.33;;
7383;SDS011;3733;47.994;8.820;2023-11-21T10:19:05;1.93;;;1.37;;
7383;SDS011;3733;47.994;8.820;2023-11-21T10:21:33;1.37;;;1.27;;
7383;SDS011;3733;47.994;8.820;2023-11-21T10:23:59;1.77;;;1.63;;
7383;SDS011;3733;47.994;8.820;2023-11-21T10:26:25;2.50;;;1.70;;
7383;SDS011;3733;47.994;8.820;2023-11-21T10:28:57;1.70;;;1.60;;
7383;SDS011;3733;47.994;8.820;2023-11-21T10:31:23;2.60;;;1.47;;
7383;SDS011;3733;47.994;8.820;2023-11-21T10:33:51;2.00;;;1.67;;
7383;SDS011;3733;47.994;8.820;2023-11-21T10:36:24;1.60;;;1.50;;
7383;SDS011;3733;47.994;8.820;2023-11-21T10:38:51;3.57;;;1.63;;
7383;SDS011;3733;47.994;8.820;2023-11-21T10:41:18;1.80;;;1.70;;
7383;SDS011;3733;47.994;8.820;2023-11-21T10:43:45;2.07;;;1.87;;
7383;SDS011;3733;47.994;8.820;2023-11-21T10:46:10;2.00;;;1.87;;
7383;SDS011;3733;47.994;8.820;2023-11-21T10:48:36;4.00;;;1.83;;
7383;SDS011;3733;47.994;8.820;2023-11-21T10:51:06;3.00;;;1.80;;
7383;SDS011;3733;47.994;8.820;2023-11-21T10:53:38;2.97;;;2.17;;
7383;SDS011;3733;47.994;8.820;2023-11-21T10:56:07;1.90;;;1.80;;
7383;SDS011;3733;47.994;8.820;2023-11-21T10:58:42;2.83;;;1.83;;
7383;SDS011;3733;47.994;8.820;2023-11-21T11:01:08;3.43;;;2.00;;
7383;SDS011;3733;47.994;8.820;2023-11-21T11:03:37;2.20;;;2.00;;
7383;SDS011;3733;47.994;8.820;2023-11-21T11:06:06;3.53;;;2.00;;
7383;SDS011;3733;47.994;8.820;2023-11-21T11:08:36;3.77;;;2.00;;
7383;SDS011;3733;47.994;8.820;2023-11-21T11:11:02;1.70;;;1.60;;
7383;SDS011;3733;47.994;8.820;2023-11-21T11:13:30;1.87;;;1.70;;
7383;SDS011;3733;47.994;8.820;2023-11-21T11:15:57;2.90;;;2.20;;
7383;SDS011;3733;47.994;8.820;2023-11-21T11:18:28;2.27;;;1.90;;
7383;SDS011;3733;47.994;8.820;2023-11-21T11:20:54;2.03;;;1.83;;
7383;SDS011;3733;47.994;8.820;2023-11-21T11:26:39;2.10;;;1.60;;
7383;SDS011;3733;47.994;8.820;2023-11-21T11:29:14;1.90;;;1.60;;
7383;SDS011;3733;47.994;8.820;2023-11-21T11:35:14;1.83;;;1.47;;
7383;SDS011;3733;47.994;8.820;2023-11-21T11:37:48;3.37;;;1.60;;
7383;SDS011;3733;47.994;8.820;2023-11-21T11:40:14;2.63;;;2.00;;
7383;SDS011;3733;47.994;8.820;2023-11-21T11:42:54;2.23;;;1.67;;
7383;SDS011;3733;47.994;8.820;2023-11-21T11:45:31;3.97;;;2.67;;
7383;SDS011;3733;47.994;8.820;2023-11-21T11:48:00;4.77;;;3.23;;
7383;SDS011;3733;47.994;8.820;2023-11-21T11:50:27;3.37;;;2.00;;
7383;SDS011;3733;47.994;8.820;2023-11-21T11:52:53;1.70;;;1.60;;
7383;SDS011;3733;47.994;8.820;2023-11-21T11:55:20;3.83;;;2.40;;
7383;SDS011;3733;47.994;8.820;2023-11-21T11:57:56;1.77;;;1.10;;
7383;SDS011;3733;47.994;8.820;2023-11-21T12:00:44;2.00;;;1.90;;
7383;SDS011;3733;47.994;8.820;2023-11-21T12:03:13;4.23;;;2.87;;
7383;SDS011;3733;47.994;8.820;2023-11-21T12:05:39;1.33;;;1.23;;
7383;SDS011;3733;47.994;8.820;2023-11-21T12:08:07;1.40;;;1.30;;
7383;SDS011;3733;47.994;8.820;2023-11-21T12:10:34;1.80;;;1.70;;
7383;SDS011;3733;47.994;8.820;2023-11-21T12:13:01;1.67;;;1.57;;
7383;SDS011;3733;47.994;8.820;2023-11-21T12:15:38;1.40;;;1.30;;
7383;SDS011;3733;47.994;8.820;2023-11-21T12:18:05;1.57;;;1.20;;
7383;SDS011;3733;47.994;8.820;2023-11-21T12:20:31;1.13;;;1.10;;
7383;SDS011;3733;47.994;8.820;2023-11-21T12:22:58;3.20;;;1.23;;
7383;SDS011;3733;47.994;8.820;2023-11-21T12:25:25;5.93;;;1.23;;
7383;SDS011;3733;47.994;8.820;2023-11-21T12:27:59;1.50;;;1.27;;
7383;SDS011;3733;47.994;8.820;2023-11-21T12:30:26;1.77;;;1.37;;
7383;SDS011;3733;47.994;8.820;2023-11-21T12:32:55;1.30;;;1.20;;
7383;SDS011;3733;47.994;8.820;2023-11-21T12:35:23;1.67;;;1.57;;
7383;SDS011;3733;47.994;8.820;2023-11-21T12:37:51;1.83;;;1.43;;
7383;SDS011;3733;47.994;8.820;2023-11-21T12:40:17;1.37;;;1.20;;
7383;SDS011;3733;47.994;8.820;2023-11-21T12:42:47;1.67;;;1.40;;
7383;SDS011;3733;47.994;8.820;2023-11-21T12:47:46;1.40;;;1.30;;
7383;SDS011;3733;47.994;8.820;2023-11-21T12:50:18;3.37;;;1.60;;
7383;SDS011;3733;47.994;8.820;2023-11-21T12:52:49;1.37;;;1.27;;
7383;SDS011;3733;47.994;8.820;2023-11-21T12:55:19;1.17;;;1.10;;
7383;SDS011;3733;47.994;8.820;2023-11-21T12:57:50;1.30;;;1.20;;
7383;SDS011;3733;47.994;8.820;2023-11-21T13:00:20;2.40;;;1.70;;
7383;SDS011;3733;47.994;8.820;2023-11-21T13:02:56;1.87;;;1.30;;
7383;SDS011;3733;47.994;8.820;2023-11-21T13:05:30;1.30;;;1.20;;
7383;SDS011;3733;47.994;8.820;2023-11-21T13:07:59;1.37;;;1.30;;
7383;SDS011;3733;47.994;8.820;2023-11-21T13:10:27;3.33;;;1.47;;
7383;SDS011;3733;47.994;8.820;2023-11-21T13:12:59;1.30;;;1.30;;
7383;SDS011;3733;47.994;8.820;2023-11-21T13:15:29;3.03;;;2.10;;
7383;SDS011;3733;47.994;8.820;2023-11-21T13:17:56;2.67;;;1.53;;
7383;SDS011;3733;47.994;8.820;2023-11-21T13:20:22;2.47;;;1.73;;
7383;SDS011;3733;47.994;8.820;2023-11-21T13:22:55;2.20;;;2.00;;
7383;SDS011;3733;47.994;8.820;2023-11-21T13:25:26;1.80;;;1.70;;
7383;SDS011;3733;47.994;8.820;2023-11-21T13:27:55;1.80;;;1.70;;
7383;SDS011;3733;47.994;8.820;2023-11-21T13:30:22;3.67;;;1.77;;
7383;SDS011;3733;47.994;8.820;2023-11-21T13:32:52;1.77;;;1.67;;
7383;SDS011;3733;47.994;8.820;2023-11-21T13:35:22;1.37;;;1.27;;
7383;SDS011;3733;47.994;8.820;2023-11-21T13:38:20;1.47;;;1.37;;
7383;SDS011;3733;47.994;8.820;2023-11-21T13:40:50;3.53;;;2.00;;
7383;SDS011;3733;47.994;8.820;2023-11-21T13:43:24;1.73;;;1.63;;
7383;SDS011;3733;47.994;8.820;2023-11-21T13:45:51;3.30;;;2.40;;
7383;SDS011;3733;47.994;8.820;2023-11-21T13:48:29;5.10;;;2.83;;
7383;SDS011;3733;47.994;8.820;2023-11-21T13:51:05;2.10;;;1.87;;
7383;SDS011;3733;47.994;8.820;2023-11-21T13:53:45;1.73;;;1.60;;
7383;SDS011;3733;47.994;8.820;2023-11-21T13:56:17;1.60;;;1.50;;
7383;SDS011;3733;47.994;8.820;2023-11-21T13:58:48;2.10;;;1.70;;
7383;SDS011;3733;47.994;8.820;2023-11-21T14:01:18;2.50;;;1.43;;
7383;SDS011;3733;47.994;8.820;2023-11-21T14:03:56;1.30;;;1.27;;
7383;SDS011;3733;47.994;8.820;2023-11-21T14:06:27;1.87;;;1.77;;
7383;SDS011;3733;47.994;8.820;2023-11-21T14:08:59;1.53;;;1.30;;
7383;SDS011;3733;47.994;8.820;2023-11-21T14:11:30;1.47;;;1.37;;
7383;SDS011;3733;47.994;8.820;2023-11-21T14:13:56;1.60;;;1.50;;
7383;SDS011;3733;47.994;8.820;2023-11-21T14:16:24;1.10;;;1.00;;
7383;SDS011;3733;47.994;8.820;2023-11-21T14:18:50;1.43;;;1.33;;
7383;SDS011;3733;47.994;8.820;2023-11-21T14:21:22;1.63;;;1.53;;
7383;SDS011;3733;47.994;8.820;2023-11-21T14:23:48;1.30;;;1.17;;
7383;SDS011;3733;47.994;8.820;2023-11-21T14:26:14;1.60;;;1.50;;
7383;SDS011;3733;47.994;8.820;2023-11-21T14:28:40;2.30;;;1.37;;
7383;SDS011;3733;47.994;8.820;2023-11-21T14:31:06;1.20;;;1.10;;
7383;SDS011;3733;47.994;8.820;2023-11-21T14:33:38;1.20;;;1.10;;
7383;SDS011;3733;47.994;8.820;2023-11-21T14:36:04;1.27;;;1.17;;
7383;SDS011;3733;47.994;8.820;2023-11-21T14:38:30;1.73;;;1.30;;
7383;SDS011;3733;47.994;8.820;2023-11-21T14:40:55;1.67;;;1.23;;
7383;SDS011;3733;47.994;8.820;2023-11-21T14:43:22;1.73;;;1.63;;
7383;SDS011;3733;47.994;8.820;2023-11-21T14:45:49;2.40;;;1.67;;
7383;SDS011;3733;47.994;8.820;2023-11-21T14:48:15;2.33;;;2.10;;
7383;SDS011;3733;47.994;8.820;2023-11-21T14:50:51;1.83;;;1.40;;
7383;SDS011;3733;47.994;8.820;2023-11-21T14:53:28;2.60;;;2.30;;
7383;SDS011;3733;47.994;8.820;2023-11-21T14:56:08;1.50;;;1.40;;
7383;SDS011;3733;47.994;8.820;2023-11-21T14:58:35;2.20;;;1.40;;
7383;SDS011;3733;47.994;8.820;2023-11-21T15:01:03;1.73;;;1.60;;
7383;SDS011;3733;47.994;8.820;2023-11-21T15:03:29;2.33;;;1.80;;
7383;SDS011;3733;47.994;8.820;2023-11-21T15:05:58;1.73;;;1.40;;
7383;SDS011;3733;47.994;8.820;2023-11-21T15:08:24;1.20;;;1.10;;
7383;SDS011;3733;47.994;8.820;2023-11-21T15:10:57;1.90;;;1.63;;
7383;SDS011;3733;47.994;8.820;2023-11-21T15:13:23;1.60;;;1.50;;
7383;SDS011;3733;47.994;8.820;2023-11-21T15:15:50;2.37;;;2.00;;
7383;SDS011;3733;47.994;8.820;2023-11-21T15:18:15;4.47;;;3.50;;
7383;SDS011;3733;47.994;8.820;2023-11-21T15:20:41;6.77;;;4.07;;
7383;SDS011;3733;47.994;8.820;2023-11-21T15:23:08;6.50;;;3.90;;
7383;SDS011;3733;47.994;8.820;2023-11-21T15:25:34;9.50;;;5.50;;
7383;SDS011;3733;47.994;8.820;2023-11-21T15:28:01;3.57;;;2.60;;
7383;SDS011;3733;47.994;8.820;2023-11-21T15:30:27;4.20;;;2.50;;